Time;durP1;ratioP1;P1;durP2;ratioP2;P2;SDS_P1;SDS_P2;PMS_P1;PMS_P2;Temp;Humidity;BMP_temperature;BMP_pressure;BME280_temperature;BME280_humidity;BME280_pressure;Samples;Min_cycle;Max_cycle;Signal;HPM_P1;HPM_P2
2023/09/18 00:00:21;;;;;;;10.20;5.53;;;;;;;19.54;97.82;100963.72;5031911;28;20470;-73
2023/09/18 00:02:47;;;;;;;12.18;5.88;;;;;;;19.70;97.76;100974.31;5031451;28;20029;-72
2023/09/18 00:05:15;;;;;;;10.15;5.68;;;;;;;19.77;97.10;100964.78;5031777;28;20473;-72
2023/09/18 00:07:44;;;;;;;8.85;4.80;;;;;;;19.79;96.11;100966.53;5032109;28;20029;-73
2023/09/18 00:10:13;;;;;;;11.60;4.63;;;;;;;19.51;97.05;100960.22;5026803;28;20034;-71
2023/09/18 00:12:39;;;;;;;7.43;4.03;;;;;;;19.51;97.91;100976.78;5012195;28;20028;-72
2023/09/18 00:15:06;;;;;;;10.38;4.43;;;;;;;18.66;97.65;100824.25;5012007;28;20112;-75
2023/09/18 00:17:31;;;;;;;9.57;4.38;;;;;;;19.11;97.66;100903.16;5012117;28;20092;-72
2023/09/18 00:19:57;;;;;;;8.68;3.78;;;;;;;19.26;97.39;100962.63;5011740;28;20034;-74
2023/09/18 00:22:24;;;;;;;8.20;3.42;;;;;;;18.62;98.35;100884.34;5012168;28;20030;-71
2023/09/18 00:24:49;;;;;;;6.75;4.05;;;;;;;18.96;98.88;100950.13;5011678;28;20052;-72
2023/09/18 00:27:15;;;;;;;6.63;3.45;;;;;;;18.50;99.26;100885.09;5012376;28;20030;-71
2023/09/18 00:29:41;;;;;;;6.88;3.45;;;;;;;18.52;99.39;100905.16;5012318;28;20022;-71
2023/09/18 00:32:07;;;;;;;5.68;3.55;;;;;;;18.77;99.50;100957.75;5011998;28;20386;-70
2023/09/18 00:34:33;;;;;;;8.40;3.38;;;;;;;18.66;99.88;100956.75;5011670;28;20497;-70
2023/09/18 00:36:59;;;;;;;6.03;3.33;;;;;;;18.53;100.00;100956.59;5011693;28;20057;-69
2023/09/18 00:39:25;;;;;;;7.43;3.30;;;;;;;18.42;100.00;100955.59;5011703;28;20061;-69
2023/09/18 00:41:53;;;;;;;8.68;3.65;;;;;;;18.35;100.00;100949.41;5012111;28;20030;-69
2023/09/18 00:44:22;;;;;;;6.45;3.25;;;;;;;18.30;100.00;100953.69;5011623;28;20413;-70
2023/09/18 00:46:48;;;;;;;9.83;3.77;;;;;;;18.07;100.00;100928.16;5011660;28;20091;-71
2023/09/18 00:49:15;;;;;;;5.60;3.50;;;;;;;18.16;100.00;100953.53;5010964;28;20261;-69
2023/09/18 00:51:41;;;;;;;6.25;3.88;;;;;;;17.76;100.00;100890.25;5011643;28;20029;-72
2023/09/18 00:54:08;;;;;;;7.22;3.70;;;;;;;17.98;100.00;100953.25;5011541;28;20034;-69
2023/09/18 00:56:34;;;;;;;11.15;3.95;;;;;;;17.52;100.00;100896.88;5011397;28;20485;-70
2023/09/18 00:59:02;;;;;;;5.75;3.70;;;;;;;17.78;100.00;100954.69;5011481;28;20040;-68
2023/09/18 01:01:29;;;;;;;10.05;4.22;;;;;;;17.68;100.00;100957.13;5008938;28;20042;-69
2023/09/18 01:03:56;;;;;;;7.50;3.38;;;;;;;17.57;100.00;100936.97;5011238;28;20033;-70
2023/09/18 01:06:21;;;;;;;8.65;3.97;;;;;;;17.65;100.00;100959.72;5011403;28;20064;-71
2023/09/18 01:08:50;;;;;;;6.63;3.80;;;;;;;17.66;100.00;100940.56;5011027;28;20465;-71
2023/09/18 01:11:33;;;;;;;6.68;3.47;;;;;;;17.65;100.00;100949.28;5011136;28;20380;-71
2023/09/18 01:14:04;;;;;;;7.07;3.50;;;;;;;17.61;100.00;100940.50;5010846;28;20466;-71
2023/09/18 01:16:39;;;;;;;7.57;3.75;;;;;;;17.68;100.00;100944.94;5011326;28;20033;-69
2023/09/18 01:19:04;;;;;;;5.97;3.28;;;;;;;17.68;100.00;100946.69;5009792;28;20413;-73
2023/09/18 01:21:30;;;;;;;9.30;3.42;;;;;;;17.76;100.00;100948.56;5011335;28;20021;-70
2023/09/18 01:23:55;;;;;;;7.57;3.30;;;;;;;17.74;100.00;100947.66;5008636;28;20052;-70
2023/09/18 01:26:21;;;;;;;5.78;3.38;;;;;;;17.79;100.00;100938.19;5010726;28;20022;-71
2023/09/18 01:28:46;;;;;;;7.50;3.75;;;;;;;17.91;100.00;100940.06;5011055;28;20034;-70
2023/09/18 01:31:11;;;;;;;9.75;3.78;;;;;;;17.98;100.00;100935.88;5011116;28;20026;-71
2023/09/18 01:33:38;;;;;;;7.03;3.45;;;;;;;17.58;100.00;100860.41;5010858;28;20037;-70
2023/09/18 01:36:07;;;;;;;5.82;3.55;;;;;;;17.66;100.00;100857.00;5010781;28;20092;-72
2023/09/18 01:38:33;;;;;;;7.63;3.95;;;;;;;18.09;100.00;100931.66;5010663;28;20448;-70
2023/09/18 01:41:00;;;;;;;8.27;3.80;;;;;;;18.01;100.00;100921.97;5010571;28;20145;-71
2023/09/18 01:43:26;;;;;;;7.47;3.80;;;;;;;17.95;100.00;100934.06;5010826;28;20088;-70
2023/09/18 01:45:52;;;;;;;6.18;3.55;;;;;;;17.87;100.00;100940.91;5008279;28;20477;-70
2023/09/18 01:48:17;;;;;;;5.57;3.83;;;;;;;17.53;100.00;100882.06;5010779;28;20026;-70
2023/09/18 01:50:43;;;;;;;9.00;3.83;;;;;;;17.85;100.00;100944.34;5010643;28;20030;-70
2023/09/18 01:53:08;;;;;;;5.40;3.60;;;;;;;17.75;100.00;100945.94;5010617;28;20029;-70
2023/09/18 01:55:34;;;;;;;5.57;3.42;;;;;;;17.80;100.00;100944.28;5010356;28;20029;-70
2023/09/18 01:57:59;;;;;;;6.70;3.72;;;;;;;17.78;100.00;100948.59;5010374;28;20026;-71
2023/09/18 02:00:25;;;;;;;7.03;3.70;;;;;;;17.35;100.00;100865.28;5010202;28;20118;-71
2023/09/18 02:02:50;;;;;;;7.05;3.90;;;;;;;17.95;100.00;100947.13;5010245;28;20113;-70
2023/09/18 02:05:16;;;;;;;6.22;3.47;;;;;;;17.98;100.00;100948.03;5010244;28;20021;-70
2023/09/18 02:07:41;;;;;;;6.95;3.58;;;;;;;18.04;100.00;100940.28;5010760;28;20026;-71
2023/09/18 02:10:07;;;;;;;8.60;3.60;;;;;;;18.04;100.00;100946.38;5010232;28;20112;-73
2023/09/18 02:12:32;;;;;;;7.55;3.65;;;;;;;17.95;100.00;100939.28;5010239;28;20520;-70
2023/09/18 02:15:00;;;;;;;8.38;3.85;;;;;;;17.93;100.00;100951.44;5010311;28;20041;-70
2023/09/18 02:17:26;;;;;;;8.48;3.70;;;;;;;17.94;100.00;100941.88;5010886;28;20018;-71
2023/09/18 02:19:52;;;;;;;6.32;3.20;;;;;;;18.06;100.00;100946.41;5010358;28;20038;-70
2023/09/18 02:22:17;;;;;;;6.68;3.70;;;;;;;18.02;100.00;100921.09;5010212;28;20030;-69
2023/09/18 02:24:43;;;;;;;7.35;3.63;;;;;;;18.17;100.00;100939.59;5010141;28;20092;-72
2023/09/18 02:27:08;;;;;;;10.10;3.67;;;;;;;18.06;100.00;100925.53;5010146;28;20052;-71
2023/09/18 02:29:33;;;;;;;7.93;3.75;;;;;;;17.97;100.00;100938.44;5010230;28;20037;-70
2023/09/18 02:31:59;;;;;;;7.65;4.07;;;;;;;18.09;100.00;100941.22;5010340;28;20537;-73
2023/09/18 02:34:25;;;;;;;7.38;3.90;;;;;;;18.23;100.00;100942.28;5010272;28;20025;-71
2023/09/18 02:36:50;;;;;;;10.02;3.60;;;;;;;18.16;100.00;100945.69;5009921;28;20164;-70
2023/09/18 02:39:15;;;;;;;5.80;3.42;;;;;;;18.15;100.00;100935.22;5010594;28;20470;-70
2023/09/18 02:41:41;;;;;;;5.97;3.50;;;;;;;18.28;100.00;100952.81;5010504;28;20104;-75
2023/09/18 02:44:06;;;;;;;8.35;4.75;;;;;;;18.40;100.00;100950.31;5010124;28;20025;-73
2023/09/18 02:46:31;;;;;;;15.82;7.25;;;;;;;18.45;100.00;100942.56;5010311;28;20026;-70
2023/09/18 02:48:57;;;;;;;12.25;6.47;;;;;;;18.45;100.00;100939.94;5010265;28;20026;-72
2023/09/18 02:51:23;;;;;;;13.43;7.20;;;;;;;18.51;100.00;100945.25;5010227;28;20623;-72
2023/09/18 02:53:48;;;;;;;13.27;7.60;;;;;;;18.14;100.00;100870.75;5009908;28;20025;-69
2023/09/18 02:56:14;;;;;;;12.13;6.93;;;;;;;18.60;100.00;100944.47;5010143;28;20825;-71
2023/09/18 02:58:39;;;;;;;13.02;6.95;;;;;;;18.46;100.00;100944.31;5010063;28;20049;-70
2023/09/18 03:01:06;;;;;;;12.98;7.57;;;;;;;18.34;100.00;100938.94;5009969;28;20040;-74
2023/09/18 03:03:33;;;;;;;10.98;6.75;;;;;;;18.23;100.00;100949.25;5010002;28;20037;-71
2023/09/18 03:06:03;;;;;;;12.88;7.03;;;;;;;17.46;100.00;100868.06;5009835;28;20120;-70
2023/09/18 03:08:29;;;;;;;13.00;6.90;;;;;;;17.89;100.00;100938.31;5009642;28;20018;-74
2023/09/18 03:10:54;;;;;;;11.27;6.90;;;;;;;18.00;100.00;100948.94;5010055;28;20108;-68
2023/09/18 03:13:21;;;;;;;11.50;5.95;;;;;;;17.74;100.00;100934.59;5012489;28;20034;-70
2023/09/18 03:15:47;;;;;;;7.35;5.13;;;;;;;17.65;100.00;100952.75;5013172;28;20038;-71
2023/09/18 03:18:13;;;;;;;8.80;4.53;;;;;;;17.41;100.00;100928.00;5012255;28;20567;-73
2023/09/18 03:20:38;;;;;;;10.27;5.10;;;;;;;17.43;100.00;100949.81;5013494;28;20034;-74
2023/09/18 03:23:04;;;;;;;9.80;4.65;;;;;;;17.24;100.00;100925.13;5013320;28;20026;-73
2023/09/18 03:25:29;;;;;;;10.77;4.57;;;;;;;17.16;100.00;100931.94;5013011;28;20405;-71
2023/09/18 03:27:57;;;;;;;8.18;4.20;;;;;;;17.09;100.00;100937.91;5011975;28;20026;-72
2023/09/18 03:30:24;;;;;;;9.60;4.03;;;;;;;17.17;100.00;100956.31;5013099;28;20504;-75
2023/09/18 03:32:50;;;;;;;8.73;4.10;;;;;;;16.98;100.00;100933.38;5018274;28;20061;-69
2023/09/18 03:35:19;;;;;;;8.90;4.43;;;;;;;16.69;100.00;100900.66;5032581;28;20171;-70
2023/09/18 03:37:45;;;;;;;8.85;4.40;;;;;;;17.08;100.00;100943.97;5032154;28;20087;-71
2023/09/18 03:40:10;;;;;;;13.38;4.63;;;;;;;16.91;100.00;100949.78;5032726;28;20030;-70
2023/09/18 03:42:36;;;;;;;9.23;4.70;;;;;;;17.01;100.00;100960.34;5032797;28;20809;-70
2023/09/18 03:45:02;;;;;;;11.00;4.72;;;;;;;17.21;100.00;100961.59;5032801;28;20030;-70
2023/09/18 03:47:27;;;;;;;8.13;4.75;;;;;;;16.97;100.00;100943.75;5032528;28;20452;-71
2023/09/18 03:49:53;;;;;;;9.18;5.63;;;;;;;16.47;100.00;100890.69;5032931;28;20120;-71
2023/09/18 03:52:18;;;;;;;14.77;5.47;;;;;;;16.91;100.00;100956.66;5032555;28;20026;-71
2023/09/18 03:54:43;;;;;;;13.10;5.90;;;;;;;16.88;100.00;100952.28;5032498;28;20529;-70
2023/09/18 03:57:09;;;;;;;11.15;5.80;;;;;;;16.80;100.00;100949.53;5032284;28;20032;-73
2023/09/18 03:59:34;;;;;;;11.63;5.43;;;;;;;16.78;100.00;100968.59;5032170;28;20033;-71
2023/09/18 04:02:00;;;;;;;11.05;5.53;;;;;;;16.84;100.00;100963.50;5031864;28;20042;-71
2023/09/18 04:04:25;;;;;;;9.52;5.50;;;;;;;16.70;100.00;100933.66;5032030;28;20025;-73
2023/09/18 04:06:50;;;;;;;10.75;4.80;;;;;;;16.70;100.00;100971.06;5031953;28;20033;-72
2023/09/18 04:09:17;;;;;;;12.27;4.50;;;;;;;16.53;100.00;100967.25;5031946;28;20128;-71
2023/09/18 04:11:43;;;;;;;11.15;4.95;;;;;;;16.40;100.00;100964.38;5032074;28;20064;-72
2023/09/18 04:14:09;;;;;;;10.63;5.03;;;;;;;16.50;100.00;100968.06;5031616;28;20053;-71
2023/09/18 04:16:35;;;;;;;11.93;4.70;;;;;;;16.45;100.00;100977.50;5031890;28;20033;-71
2023/09/18 04:19:01;;;;;;;12.52;5.47;;;;;;;16.52;100.00;100975.91;5031664;28;20033;-71
2023/09/18 04:21:27;;;;;;;9.18;4.68;;;;;;;16.58;100.00;100971.69;5030188;28;20041;-70
2023/09/18 04:23:57;;;;;;;7.75;4.43;;;;;;;16.68;100.00;100967.53;5028562;28;20400;-69
2023/09/18 04:26:23;;;;;;;;;;;;;;;16.81;100.00;100969.53;5031866;28;20021;-71
2023/09/18 04:28:48;;;;;;;8.82;4.68;;;;;;;16.86;100.00;100969.63;5031408;28;20351;-70
2023/09/18 04:31:13;;;;;;;8.13;4.75;;;;;;;16.83;100.00;100974.78;5031495;28;20499;-73
2023/09/18 04:33:39;;;;;;;13.82;5.65;;;;;;;16.68;100.00;100970.13;5031352;28;20018;-72
2023/09/18 04:36:05;;;;;;;9.50;4.97;;;;;;;16.60;100.00;100985.63;5029206;28;20100;-76
2023/09/18 04:38:30;;;;;;;11.27;5.38;;;;;;;16.68;100.00;100980.56;5025484;28;20127;-71
2023/09/18 04:41:02;;;;;;;11.77;5.35;;;;;;;16.57;100.00;100979.47;5011526;28;20512;-71
2023/09/18 04:43:31;;;;;;;11.77;5.07;;;;;;;16.65;100.00;100984.00;5028030;28;20029;-70
2023/09/18 04:45:57;;;;;;;;;;;;;;;16.65;100.00;100981.38;5031926;28;20030;-68
2023/09/18 04:48:22;;;;;;;9.07;5.07;;;;;;;16.73;100.00;100983.28;5031160;28;19920;-70
2023/09/18 04:50:48;;;;;;;11.65;5.50;;;;;;;16.36;100.00;100901.72;5031334;28;20028;-69
2023/09/18 04:53:14;;;;;;;12.00;5.38;;;;;;;16.79;100.00;100991.22;5031245;28;20033;-68
2023/09/18 04:55:39;;;;;;;11.75;5.22;;;;;;;16.78;100.00;100982.50;5029206;28;20029;-69
2023/09/18 04:58:05;;;;;;;12.45;6.10;;;;;;;16.87;100.00;100988.75;5031539;28;20095;-75
2023/09/18 05:00:31;;;;;;;11.25;6.35;;;;;;;16.96;100.00;100983.78;5029213;28;20394;-70
2023/09/18 05:03:00;;;;;;;12.10;6.25;;;;;;;16.94;100.00;100952.41;5031597;28;20083;-70
2023/09/18 05:05:26;;;;;;;16.55;6.47;;;;;;;17.21;100.00;100986.81;5031543;28;20025;-69
2023/09/18 05:07:51;;;;;;;15.57;6.38;;;;;;;16.97;100.00;100922.91;5046780;28;20055;-70
2023/09/18 05:10:16;;;;;;;11.35;6.55;;;;;;;17.39;100.00;100984.50;5031451;28;20026;-70
2023/09/18 05:12:42;;;;;;;11.77;5.88;;;;;;;17.05;100.00;100894.38;5031467;28;20033;-70
2023/09/18 05:15:18;;;;;;;15.25;6.53;;;;;;;17.69;100.00;100982.41;5030939;28;20033;-68
2023/09/18 05:17:54;;;;;;;27.38;9.25;;;;;;;17.66;100.00;100972.78;5028475;28;20045;-71
2023/09/18 05:20:19;;;;;;;20.35;11.38;;;;;;;17.73;100.00;100985.09;5028620;28;20047;-70
2023/09/18 05:22:45;;;;;;;26.42;12.05;;;;;;;17.36;100.00;100926.16;5028449;28;20030;-69
2023/09/18 05:25:11;;;;;;;24.40;13.27;;;;;;;17.73;100.00;100986.81;5028480;28;20032;-70
2023/09/18 05:27:43;;;;;;;21.30;14.05;;;;;;;17.71;100.00;100980.72;5028292;28;20099;-70
2023/09/18 05:30:21;;;;;;;29.33;13.85;;;;;;;17.59;100.00;100987.47;5028072;28;20041;-69
2023/09/18 05:32:47;;;;;;;23.00;13.65;;;;;;;17.53;100.00;100974.31;5028429;28;20044;-69
2023/09/18 05:35:13;;;;;;;30.20;14.95;;;;;;;17.54;100.00;100981.28;4993652;28;20077;-70
2023/09/18 05:37:39;;;;;;;26.42;16.08;;;;;;;17.13;100.00;100903.19;4998447;28;20108;-69
2023/09/18 05:40:10;;;;;;;27.77;15.27;;;;;;;17.55;100.00;100977.81;5006395;28;20042;-68
2023/09/18 05:42:42;;;;;;;26.48;15.45;;;;;;;17.58;100.00;100982.22;5008115;28;20077;-70
2023/09/18 05:45:08;;;;;;;23.85;15.40;;;;;;;17.58;100.00;100988.34;5007999;28;20042;-71
2023/09/18 05:47:38;;;;;;;24.70;15.38;;;;;;;17.63;100.00;100983.16;5008258;28;20026;-70
2023/09/18 05:50:05;;;;;;;;;;;;;;;17.74;100.00;100992.03;5026587;28;20116;-71
2023/09/18 05:52:30;;;;;;;27.40;15.10;;;;;;;17.77;100.00;100971.22;5030168;28;19909;-69
2023/09/18 05:54:56;;;;;;;21.92;13.27;;;;;;;17.99;100.00;100996.81;5029817;28;20028;-70
2023/09/18 05:57:21;;;;;;;23.05;13.60;;;;;;;18.07;100.00;100992.59;5029683;28;20104;-71
2023/09/18 05:59:47;;;;;;;23.88;13.35;;;;;;;18.19;100.00;100986.66;5029919;28;20021;-70
2023/09/18 06:02:13;;;;;;;30.83;15.07;;;;;;;18.30;100.00;101003.34;5030111;28;20065;-72
2023/09/18 06:04:38;;;;;;;25.10;15.02;;;;;;;17.97;100.00;100910.59;5010690;28;20064;-72
2023/09/18 06:07:04;;;;;;;32.50;16.60;;;;;;;18.51;100.00;100992.31;5027761;28;20060;-70
2023/09/18 06:09:29;;;;;;;22.45;13.30;;;;;;;18.16;100.00;100921.28;5028522;28;20481;-68
2023/09/18 06:11:55;;;;;;;29.88;15.35;;;;;;;18.18;100.00;100912.63;5029588;28;20461;-72
2023/09/18 06:14:22;;;;;;;24.05;14.25;;;;;;;18.69;100.00;101001.22;5029914;28;20556;-72
2023/09/18 06:16:48;;;;;;;23.55;12.95;;;;;;;18.63;100.00;100982.84;5029402;28;20060;-71
2023/09/18 06:19:17;;;;;;;17.73;11.05;;;;;;;18.84;100.00;100998.81;5028839;28;20416;-73
2023/09/18 06:21:43;;;;;;;18.43;9.77;;;;;;;18.99;100.00;101000.75;5057192;28;20044;-74
2023/09/18 06:24:08;;;;;;;16.38;9.98;;;;;;;18.80;100.00;100936.84;5032511;28;20416;-69
2023/09/18 06:26:33;;;;;;;14.30;7.82;;;;;;;19.31;100.00;100991.47;5044821;28;20037;-70
2023/09/18 06:28:59;;;;;;;12.93;8.20;;;;;;;19.22;98.95;100966.09;5044766;28;20113;-69
2023/09/18 06:31:24;;;;;;;21.42;8.60;;;;;;;19.72;98.21;101001.41;5046617;28;20056;-73
2023/09/18 06:33:50;;;;;;;56.03;10.80;;;;;;;19.81;97.53;100992.75;5046483;28;20045;-70
2023/09/18 06:36:15;;;;;;;16.17;8.05;;;;;;;19.97;97.70;101009.50;5046211;28;20498;-73
2023/09/18 06:38:41;;;;;;;14.05;6.43;;;;;;;20.04;95.37;101008.66;5046546;28;20029;-73
2023/09/18 06:41:06;;;;;;;13.23;4.60;;;;;;;19.96;93.78;100950.06;5045914;28;20041;-74
2023/09/18 06:43:31;;;;;;;7.88;4.93;;;;;;;20.30;93.05;100990.47;5046821;28;20033;-68
2023/09/18 06:45:57;;;;;;;11.13;4.28;;;;;;;20.34;90.41;100952.88;5046441;28;20025;-76
2023/09/18 06:48:24;;;;;;;12.82;4.57;;;;;;;20.39;90.70;100939.81;5048071;28;20037;-71
2023/09/18 06:51:09;;;;;;;11.38;4.82;;;;;;;20.87;90.31;101016.06;5008452;28;20056;-72
2023/09/18 06:53:34;;;;;;;14.23;5.35;;;;;;;21.11;89.71;101006.50;5011062;28;20042;-71
2023/09/18 06:56:00;;;;;;;10.38;4.93;;;;;;;21.25;87.31;101014.44;5009975;28;20034;-75
2023/09/18 06:58:25;;;;;;;10.95;5.60;;;;;;;21.42;87.60;101017.06;5010960;28;20033;-73
2023/09/18 07:00:51;;;;;;;9.23;4.72;;;;;;;21.58;86.01;101011.00;5010564;28;20034;-71
2023/09/18 07:03:17;;;;;;;10.07;4.95;;;;;;;21.72;84.82;101015.34;5010751;28;20117;-70
2023/09/18 07:05:43;;;;;;;17.45;5.32;;;;;;;21.79;84.69;101004.84;5010779;28;20029;-70
2023/09/18 07:08:11;;;;;;;24.92;6.70;;;;;;;21.98;83.10;101010.94;5009765;28;20644;-70
2023/09/18 07:10:37;;;;;;;11.10;5.75;;;;;;;22.01;86.33;101006.53;5009587;28;20523;-75
2023/09/18 07:13:03;;;;;;;10.50;5.53;;;;;;;22.13;82.88;101010.03;4994165;28;20037;-73
2023/09/18 07:15:29;;;;;;;11.15;5.10;;;;;;;21.90;82.27;100938.25;5010399;28;20053;-74
2023/09/18 07:17:54;;;;;;;11.77;5.13;;;;;;;22.39;80.60;101010.88;5010195;28;20033;-70
2023/09/18 07:20:22;;;;;;;10.23;5.68;;;;;;;22.48;81.17;101020.50;5010126;28;20140;-71
2023/09/18 07:22:48;;;;;;;12.98;5.65;;;;;;;22.67;78.61;101016.91;5026504;28;20037;-72
2023/09/18 07:25:15;;;;;;;10.68;5.38;;;;;;;22.81;78.21;101013.34;5031958;28;20420;-72
2023/09/18 07:27:44;;;;;;;9.15;4.70;;;;;;;22.89;76.63;101016.78;5032114;28;20128;-71
2023/09/18 07:30:17;;;;;;;9.00;4.10;;;;;;;23.00;72.39;101014.13;5029628;28;20657;-70
2023/09/18 07:32:43;;;;;;;6.30;3.72;;;;;;;23.21;71.31;101006.09;5030078;28;20026;-70
2023/09/18 07:35:09;;;;;;;7.88;4.20;;;;;;;23.39;71.48;101018.28;5031397;28;20485;-70
2023/09/18 07:37:36;;;;;;;16.67;4.50;;;;;;;23.41;70.26;100987.53;5047073;28;20018;-71
2023/09/18 07:40:03;;;;;;;6.40;4.00;;;;;;;23.56;69.30;101006.72;5032063;28;20845;-71
2023/09/18 07:42:28;;;;;;;8.38;4.25;;;;;;;23.66;70.30;101000.47;5032186;28;20457;-73
2023/09/18 07:44:54;;;;;;;7.32;4.07;;;;;;;23.60;70.05;100982.06;5031976;28;20079;-74
2023/09/18 07:47:20;;;;;;;8.18;3.60;;;;;;;23.83;67.41;101004.75;5031441;28;20040;-70
2023/09/18 07:49:46;;;;;;;7.93;3.30;;;;;;;23.85;67.84;101000.31;5018758;28;20041;-72
2023/09/18 07:52:11;;;;;;;14.40;4.47;;;;;;;23.70;65.43;100973.22;5032248;28;20113;-70
2023/09/18 07:54:37;;;;;;;5.35;3.13;;;;;;;23.82;63.05;100997.72;5031843;28;20108;-68
2023/09/18 07:57:02;;;;;;;6.95;3.35;;;;;;;23.72;63.63;100994.28;5032060;28;20033;-69
2023/09/18 07:59:28;;;;;;;7.25;3.38;;;;;;;23.68;64.62;100972.34;5030924;28;20029;-68
2023/09/18 08:01:55;;;;;;;4.80;3.20;;;;;;;23.74;65.61;100984.63;5031673;28;20553;-70
2023/09/18 08:04:20;;;;;;;7.90;3.55;;;;;;;23.69;65.40;100968.84;5031503;28;20026;-67
2023/09/18 08:06:47;;;;;;;6.15;3.30;;;;;;;23.38;64.15;100911.13;5026197;28;20095;-67
2023/09/18 08:09:15;;;;;;;9.27;3.30;;;;;;;23.43;63.57;100927.78;5029190;28;20490;-70
2023/09/18 08:11:42;;;;;;;5.80;3.00;;;;;;;23.55;64.36;100908.34;5032073;28;20033;-69
2023/09/18 08:14:08;;;;;;;5.07;3.25;;;;;;;24.07;63.85;100972.00;5031838;28;20443;-70
2023/09/18 08:16:34;;;;;;;12.18;3.40;;;;;;;24.21;62.43;100946.34;5031994;28;20036;-68
2023/09/18 08:19:01;;;;;;;5.50;3.38;;;;;;;24.39;58.84;100945.22;5046565;28;20473;-71
2023/09/18 08:21:29;;;;;;;8.93;3.28;;;;;;;24.64;60.63;100960.72;5031627;28;20454;-70
2023/09/18 08:23:54;;;;;;;6.03;3.40;;;;;;;24.71;59.71;100956.25;5030909;28;20401;-68
2023/09/18 08:26:20;;;;;;;15.15;3.90;;;;;;;24.77;60.89;100960.59;5031611;28;20029;-72
2023/09/18 08:28:46;;;;;;;8.07;3.30;;;;;;;24.60;60.83;100905.34;5031718;28;20496;-72
2023/09/18 08:31:11;;;;;;;5.68;3.40;;;;;;;24.96;59.48;100954.16;5031445;28;20461;-68
2023/09/18 08:33:37;;;;;;;10.93;3.58;;;;;;;24.84;58.52;100947.28;5031554;28;20091;-69
2023/09/18 08:36:02;;;;;;;6.68;3.80;;;;;;;24.43;60.22;100889.78;5031669;28;20079;-70
2023/09/18 08:38:28;;;;;;;6.13;3.33;;;;;;;24.78;60.25;100957.94;5031874;28;20033;-68
2023/09/18 08:40:54;;;;;;;20.95;4.47;;;;;;;24.62;60.81;100948.44;5031540;28;20030;-72
2023/09/18 08:43:21;;;;;;;6.07;3.35;;;;;;;24.21;57.56;100883.03;5031543;28;20021;-68
2023/09/18 08:45:52;;;;;;;43.63;5.57;;;;;;;24.44;55.00;100924.06;5031627;28;20072;-69
2023/09/18 08:48:18;;;;;;;8.52;3.42;;;;;;;24.46;55.84;100926.66;5031209;28;20400;-70
2023/09/18 08:50:45;;;;;;;8.35;3.20;;;;;;;24.20;54.86;100883.03;5031314;28;20109;-69
2023/09/18 08:53:10;;;;;;;5.68;3.28;;;;;;;24.47;56.28;100949.53;5031679;28;20032;-68
2023/09/18 08:55:36;;;;;;;9.10;3.47;;;;;;;23.94;55.81;100870.16;5031655;28;20401;-69
2023/09/18 08:58:01;;;;;;;9.05;3.20;;;;;;;24.64;55.65;100950.19;5031704;28;20029;-69
2023/09/18 09:00:27;;;;;;;4.85;3.28;;;;;;;24.85;54.85;100940.25;5031189;28;20110;-69
2023/09/18 09:02:54;;;;;;;8.98;3.67;;;;;;;24.76;54.07;100930.69;5030881;28;20022;-68
2023/09/18 09:05:22;;;;;;;15.90;3.92;;;;;;;24.58;54.98;100930.91;5031202;28;20105;-68
2023/09/18 09:07:49;;;;;;;7.55;3.10;;;;;;;24.44;54.22;100936.41;5031407;28;20401;-72
2023/09/18 09:10:15;;;;;;;5.53;3.13;;;;;;;24.37;55.54;100925.91;5030925;28;20087;-74
2023/09/18 09:13:06;;;;;;;5.43;3.33;;;;;;;24.35;55.72;100932.97;5030860;28;20029;-69
2023/09/18 09:15:45;;;;;;;5.85;3.58;;;;;;;24.15;56.21;100920.03;4989036;28;20038;-67
2023/09/18 09:18:11;;;;;;;11.93;3.25;;;;;;;24.21;54.59;100930.50;4989308;28;20030;-72
2023/09/18 09:20:37;;;;;;;4.57;3.33;;;;;;;24.21;54.87;100927.88;4989389;28;20034;-71
2023/09/18 09:23:04;;;;;;;5.68;2.92;;;;;;;24.26;58.26;100927.78;4989059;28;20050;-74
2023/09/18 09:25:31;;;;;;;8.30;3.72;;;;;;;24.16;57.41;100911.22;4989064;28;20129;-68
2023/09/18 09:27:58;;;;;;;5.45;3.40;;;;;;;23.82;57.08;100855.34;4988841;28;20038;-71
2023/09/18 09:30:26;;;;;;;6.18;3.50;;;;;;;24.19;57.01;100920.88;4989065;28;20034;-75
2023/09/18 09:32:54;;;;;;;6.38;3.88;;;;;;;24.03;55.84;100923.66;4988937;28;20423;-72
2023/09/18 09:35:29;;;;;;;6.68;3.80;;;;;;;24.04;55.54;100919.28;4988711;28;20058;-70
2023/09/18 09:38:00;;;;;;;15.07;4.05;;;;;;;24.35;53.96;100911.84;4988839;28;20409;-69
2023/09/18 09:40:28;;;;;;;10.93;4.85;;;;;;;24.78;58.20;100898.97;4988861;28;20042;-70
2023/09/18 09:43:00;;;;;;;7.13;3.83;;;;;;;24.99;53.34;100888.06;4988776;28;20045;-71
2023/09/18 09:45:26;;;;;;;7.20;4.00;;;;;;;25.08;54.18;100892.31;4988685;28;20121;-68
2023/09/18 09:47:59;;;;;;;7.22;3.92;;;;;;;25.53;51.38;100891.56;4988835;28;20034;-68
2023/09/18 09:50:25;;;;;;;7.07;3.85;;;;;;;25.53;48.54;100896.84;4987006;28;20030;-68
2023/09/18 09:52:54;;;;;;;6.10;3.92;;;;;;;25.81;49.23;100888.41;5016386;28;20436;-73
2023/09/18 09:55:22;;;;;;;6.88;4.03;;;;;;;25.94;49.56;100887.25;5028599;28;20033;-71
2023/09/18 09:57:49;;;;;;;6.95;4.22;;;;;;;26.10;50.97;100881.69;5028660;28;20030;-67
2023/09/18 10:00:26;;;;;;;7.68;4.60;;;;;;;26.32;49.20;100855.63;5029718;28;20033;-75
2023/09/18 10:03:00;;;;;;;6.93;4.50;;;;;;;26.70;48.87;100879.47;5029767;28;20030;-70
2023/09/18 10:05:31;;;;;;;8.15;4.57;;;;;;;26.91;48.70;100878.97;5027229;28;20048;-68
2023/09/18 10:08:02;;;;;;;7.45;3.95;;;;;;;27.15;47.27;100879.28;5029587;28;20018;-70
2023/09/18 10:10:38;;;;;;;6.97;4.22;;;;;;;26.90;46.68;100876.38;5029516;28;20076;-70
2023/09/18 10:13:15;;;;;;;6.95;4.20;;;;;;;26.64;50.95;100844.28;5029417;28;20022;-73
2023/09/18 10:15:43;;;;;;;6.50;4.57;;;;;;;26.74;48.46;100867.94;5027773;28;20104;-70
2023/09/18 10:18:17;;;;;;;9.63;4.57;;;;;;;26.58;47.88;100875.31;5029445;28;20026;-69
2023/09/18 10:20:45;;;;;;;7.07;4.30;;;;;;;26.36;48.28;100822.03;5029387;28;20030;-69
2023/09/18 10:23:39;;;;;;;9.02;4.65;;;;;;;26.71;48.84;100875.94;5029438;28;20118;-72
2023/09/18 10:26:05;;;;;;;8.57;4.53;;;;;;;26.58;48.73;100867.38;4971224;28;20038;-70
2023/09/18 10:28:32;;;;;;;7.28;4.57;;;;;;;27.01;49.66;100873.47;4972476;28;20038;-67
2023/09/18 10:31:00;;;;;;;7.72;3.55;;;;;;;27.19;47.17;100861.50;4972253;28;20050;-68
2023/09/18 10:33:27;;;;;;;8.50;3.88;;;;;;;26.90;48.35;100840.16;4972363;28;20031;-73
2023/09/18 10:35:54;;;;;;;9.25;4.25;;;;;;;27.09;47.19;100869.72;4972145;28;20043;-69
2023/09/18 10:38:21;;;;;;;10.60;4.00;;;;;;;27.03;50.14;100861.03;4972113;28;20057;-67
2023/09/18 10:40:48;;;;;;;8.35;4.32;;;;;;;26.57;49.54;100813.56;4971000;28;20564;-67
2023/09/18 10:43:17;;;;;;;7.68;4.22;;;;;;;26.62;52.00;100847.88;4972153;28;20077;-68
2023/09/18 10:45:44;;;;;;;8.52;4.40;;;;;;;26.59;49.40;100840.00;4971963;28;20023;-70
2023/09/18 10:48:13;;;;;;;9.38;4.50;;;;;;;26.55;50.13;100844.50;4971974;28;20039;-68
2023/09/18 10:50:43;;;;;;;7.82;4.38;;;;;;;26.46;50.79;100855.31;4971834;28;20050;-71
2023/09/18 10:53:08;;;;;;;8.70;4.55;;;;;;;26.38;49.20;100841.38;4970303;28;20039;-69
2023/09/18 10:55:34;;;;;;;14.88;4.90;;;;;;;26.59;50.80;100840.00;4939642;28;20035;-70
2023/09/18 10:58:00;;;;;;;6.65;4.80;;;;;;;26.36;49.95;100835.25;4971675;28;20042;-71
2023/09/18 11:00:28;;;;;;;11.75;4.65;;;;;;;25.95;52.13;100822.00;4937344;28;20046;-75
2023/09/18 11:03:08;;;;;;;9.93;4.63;;;;;;;25.64;51.73;100767.97;4999954;28;20038;-69
2023/09/18 11:05:33;;;;;;;10.75;4.50;;;;;;;25.96;49.20;100803.44;5032726;28;20068;-72
2023/09/18 11:08:31;;;;;;;7.45;4.30;;;;;;;26.37;48.53;100826.38;5032878;28;20500;-71
2023/09/18 11:11:04;;;;;;;8.07;4.05;;;;;;;26.64;47.94;100823.09;5022734;28;20024;-69
2023/09/18 11:13:53;;;;;;;5.88;4.20;;;;;;;26.94;45.25;100809.16;5032752;28;20455;-68
2023/09/18 11:16:19;;;;;;;7.38;3.55;;;;;;;27.42;47.28;100824.69;5032450;28;20849;-72